createdAt,value
2018-10-19T00:00:20.012Z,61.92
2018-10-19T00:02:45.506Z,62.65
2018-10-19T00:05:10.987Z,62.32
2018-10-19T00:07:36.366Z,63.03
2018-10-19T00:10:01.801Z,63.24
2018-10-19T00:12:27.235Z,62.79
2018-10-19T00:15:06.316Z,62.46
2018-10-19T00:25:09.312Z,63.24
2018-10-19T00:27:34.754Z,63.67
2018-10-19T00:30:00.180Z,62.89
2018-10-19T00:32:25.612Z,62.96
2018-10-19T00:37:28.617Z,62.91
2018-10-19T00:39:54.136Z,62.93
2018-10-19T00:47:32.597Z,62.35
2018-10-19T00:49:58.085Z,62.94
2018-10-19T00:52:23.502Z,63.24
2018-10-19T00:54:48.940Z,62.46
2018-10-19T00:57:14.415Z,62.67
2018-10-19T00:59:39.820Z,62.47
2018-10-19T01:02:05.303Z,61.97
2018-10-19T01:09:51.676Z,63.25
2018-10-19T01:12:17.143Z,62.83
2018-10-19T01:14:42.544Z,62.78
2018-10-19T01:19:45.549Z,63.44
2018-10-19T01:22:11.031Z,63.24
2018-10-19T01:24:36.590Z,63.07
2018-10-19T01:27:02.021Z,63.21
2018-10-19T01:29:27.392Z,62.50
2018-10-19T01:31:52.889Z,62.84
2018-10-19T01:34:18.301Z,62.90
2018-10-19T01:36:44.718Z,63.10
2018-10-19T01:39:10.424Z,62.54
2018-10-19T01:41:35.803Z,63.16
2018-10-19T01:44:01.227Z,63.07
2018-10-19T01:46:26.645Z,62.98
2018-10-19T01:48:52.051Z,62.86
2018-10-19T01:51:29.231Z,63.06
2018-10-19T01:53:48.852Z,63.09
2018-10-19T01:58:50.655Z,63.52
2018-10-19T02:03:53.817Z,62.75
2018-10-19T02:06:19.234Z,63.21
2018-10-19T02:08:44.680Z,63.44
2018-10-19T02:11:10.114Z,63.05
2018-10-19T02:13:35.448Z,62.40
2018-10-19T02:16:12.836Z,62.51
2018-10-19T02:18:38.425Z,62.38
2018-10-19T02:21:17.187Z,62.07
2018-10-19T02:23:42.623Z,62.21
2018-10-19T02:26:08.033Z,62.22
2018-10-19T02:28:33.476Z,62.35
2018-10-19T02:30:58.882Z,62.86
2018-10-19T02:33:24.275Z,62.22
2018-10-19T02:35:49.670Z,62.05
2018-10-19T02:38:15.047Z,62.25
2018-10-19T02:40:40.504Z,62.24
2018-10-19T02:45:42.890Z,61.90
2018-10-19T02:48:08.289Z,62.00
2018-10-19T02:50:33.718Z,62.45
2018-10-19T02:52:59.238Z,61.59
2018-10-19T02:55:24.567Z,61.62
2018-10-19T02:57:49.999Z,61.88
2018-10-19T03:00:15.402Z,62.07
2018-10-19T03:02:41.141Z,62.17
2018-10-19T03:05:07.271Z,62.59
2018-10-19T03:07:32.596Z,63.98
2018-10-19T03:09:58.018Z,64.60
2018-10-19T03:12:23.429Z,64.19
2018-10-19T03:15:00.468Z,63.35
2018-10-19T03:17:20.847Z,64.02
2018-10-19T03:19:46.231Z,64.31
2018-10-19T03:24:48.387Z,63.93
2018-10-19T03:27:13.907Z,63.77
2018-10-19T03:29:39.280Z,63.83
2018-10-19T03:34:36.174Z,63.14
2018-10-19T03:37:01.574Z,64.49
2018-10-19T03:39:27.057Z,64.14
2018-10-19T03:42:04.290Z,64.46
2018-10-19T03:44:23.952Z,64.39
2018-10-19T03:46:49.364Z,65.01
2018-10-19T03:49:14.909Z,65.68
2018-10-19T03:51:59.263Z,65.25
2018-10-19T03:57:03.108Z,65.59
2018-10-19T03:59:28.463Z,64.83
2018-10-19T04:01:53.966Z,65.02
2018-10-19T04:04:19.406Z,64.90
2018-10-19T04:09:28.560Z,63.30
2018-10-19T04:11:53.993Z,63.63
2018-10-19T04:14:19.446Z,62.97
2018-10-19T04:16:44.883Z,62.80
2018-10-19T04:19:11.026Z,62.31
2018-10-19T04:21:36.478Z,62.51
2018-10-19T04:26:39.447Z,62.66
2018-10-19T04:29:04.896Z,62.90
2018-10-19T04:31:30.307Z,63.43
2018-10-19T04:33:55.711Z,63.03
2018-10-19T04:36:21.123Z,62.15
2018-10-19T04:38:46.549Z,62.60
2018-10-19T04:41:12.053Z,63.04
2018-10-19T04:43:37.395Z,62.77
2018-10-19T04:46:02.826Z,63.02
2018-10-19T04:48:28.241Z,63.62
2018-10-19T04:50:53.721Z,64.09
2018-10-19T04:55:50.429Z,63.12
2018-10-19T04:58:15.837Z,63.05
2018-10-19T05:00:41.308Z,62.98
2018-10-19T05:05:43.758Z,63.06
2018-10-19T05:08:09.307Z,62.40
2018-10-19T05:10:46.467Z,61.75
2018-10-19T05:15:48.371Z,63.00
2018-10-19T05:18:13.790Z,63.81
2018-10-19T05:20:39.210Z,63.12
2018-10-19T05:23:04.755Z,62.91
2018-10-19T05:25:30.191Z,62.87
2018-10-19T05:27:55.628Z,62.92
2018-10-19T05:30:21.048Z,63.26
2018-10-19T05:32:46.488Z,63.93
2018-10-19T05:35:11.877Z,64.88
2018-10-19T05:37:37.920Z,64.45
2018-10-19T05:40:03.433Z,63.59
2018-10-19T05:42:28.894Z,63.83
2018-10-19T05:44:54.264Z,64.55
2018-10-19T05:47:19.687Z,64.46
2018-10-19T05:49:45.134Z,63.99
2018-10-19T05:52:10.596Z,63.67
2018-10-19T05:54:35.944Z,63.42
2018-10-19T05:57:01.331Z,63.59
2018-10-19T05:59:26.774Z,63.23
2018-10-19T06:02:04.054Z,62.84
2018-10-19T06:04:23.423Z,62.64
2018-10-19T06:06:48.844Z,62.92
2018-10-19T06:09:25.700Z,62.51
2018-10-19T06:11:45.316Z,64.05
2018-10-19T06:14:11.446Z,64.23
2018-10-19T06:16:36.921Z,64.18
2018-10-19T06:19:02.334Z,64.71
2018-10-19T06:21:27.751Z,64.12
2018-10-19T06:23:53.178Z,64.85
2018-10-19T06:26:30.127Z,64.85
2018-10-19T06:28:49.449Z,66.14
2018-10-19T06:31:14.898Z,66.14
2018-10-19T06:33:40.353Z,65.46
2018-10-19T06:36:05.762Z,65.96
2018-10-19T06:38:31.205Z,66.36
2018-10-19T06:40:56.681Z,65.82
2018-10-19T06:43:22.058Z,67.03
2018-10-19T06:45:47.436Z,66.52
2018-10-19T06:48:12.892Z,65.97
2018-10-19T06:50:38.302Z,65.15
2018-10-19T06:53:15.227Z,65.48
2018-10-19T06:58:18.154Z,65.07
2018-10-19T07:00:43.581Z,64.78
2018-10-19T07:03:09.318Z,64.39
2018-10-19T07:08:17.194Z,64.14
2018-10-19T07:10:54.132Z,64.05
2018-10-19T07:13:14.044Z,64.69
2018-10-19T07:15:39.445Z,67.06
2018-10-19T07:20:41.617Z,67.33
2018-10-19T07:23:07.149Z,67.79
2018-10-19T07:28:10.151Z,66.51
2018-10-19T07:30:49.609Z,66.22
2018-10-19T07:33:07.182Z,66.01
2018-10-19T07:35:32.574Z,66.10
2018-10-19T07:38:17.048Z,66.12
2018-10-19T07:40:53.906Z,66.05
2018-10-19T07:43:13.281Z,66.14
2018-10-19T07:45:38.939Z,66.55
2018-10-19T07:48:18.363Z,67.20
2018-10-19T07:50:36.035Z,67.61
2018-10-19T07:53:01.476Z,67.54
2018-10-19T07:55:26.867Z,68.39
2018-10-19T07:57:52.262Z,67.48
2018-10-19T08:05:31.393Z,68.24
2018-10-19T08:08:10.591Z,67.84
2018-10-19T08:10:27.758Z,67.21
2018-10-19T08:12:53.152Z,67.50
2018-10-19T08:15:18.582Z,67.04
2018-10-19T08:17:43.989Z,67.28
2018-10-19T08:20:10.136Z,68.12
2018-10-19T08:22:35.500Z,67.28
2018-10-19T08:25:12.502Z,67.53
2018-10-19T08:27:32.165Z,66.75
2018-10-19T08:29:57.802Z,66.72
2018-10-19T08:32:23.234Z,67.41
2018-10-19T08:34:48.711Z,68.72
2018-10-19T08:37:14.111Z,68.77
2018-10-19T08:39:39.581Z,68.93
2018-10-19T08:42:05.012Z,68.76
2018-10-19T08:44:30.473Z,68.69
2018-10-19T08:46:55.931Z,67.73
2018-10-19T08:49:21.283Z,68.12
2018-10-19T08:51:46.725Z,70.21
2018-10-19T08:54:12.180Z,68.25
2018-10-19T08:59:13.076Z,69.00
2018-10-19T09:01:38.426Z,69.08
2018-10-19T09:04:15.380Z,69.12
2018-10-19T09:09:12.869Z,68.59
2018-10-19T09:11:38.472Z,69.49
2018-10-19T09:14:41.956Z,68.10
2018-10-19T09:17:07.530Z,67.27
2018-10-19T09:19:32.949Z,66.30
2018-10-19T09:21:58.357Z,65.42
2018-10-19T09:24:23.833Z,64.74
2018-10-19T09:26:49.257Z,64.20
2018-10-19T09:29:15.399Z,63.47
2018-10-19T09:31:40.788Z,63.44
2018-10-19T09:34:06.510Z,62.52
2018-10-19T09:36:32.274Z,60.95
2018-10-19T09:38:57.531Z,60.54
2018-10-19T09:44:02.730Z,61.19
2018-10-19T09:46:28.171Z,62.13
2018-10-19T09:48:53.628Z,60.03
2018-10-19T09:51:19.031Z,58.85
2018-10-19T09:53:44.490Z,56.77
2018-10-19T09:56:09.963Z,55.53
2018-10-19T09:58:35.524Z,55.04
2018-10-19T10:01:01.002Z,54.98
2018-10-19T10:03:26.779Z,54.01
2018-10-19T10:06:03.627Z,54.80
2018-10-19T10:08:29.063Z,53.65
2018-10-19T10:10:54.761Z,52.92
2018-10-19T10:13:20.224Z,53.77
2018-10-19T10:15:45.780Z,53.71
2018-10-19T10:18:11.144Z,52.00
2018-10-19T10:20:36.652Z,50.71
2018-10-19T10:23:02.082Z,51.47
2018-10-19T10:25:27.569Z,49.63
2018-10-19T10:27:53.004Z,48.78
2018-10-19T10:30:29.947Z,49.77
2018-10-19T10:32:49.677Z,49.60
2018-10-19T10:35:15.067Z,48.30
2018-10-19T10:37:40.537Z,48.46
2018-10-19T10:40:06.298Z,50.27
2018-10-19T10:42:39.461Z,48.89
2018-10-19T10:45:04.849Z,49.49
2018-10-19T10:47:30.282Z,48.93
2018-10-19T10:50:02.306Z,47.47
2018-10-19T10:52:27.784Z,46.63
2018-10-19T10:55:05.024Z,46.14
2018-10-19T11:00:01.864Z,46.94
2018-10-19T11:02:27.289Z,47.48
2018-10-19T11:04:52.715Z,47.82
2018-10-19T11:07:18.285Z,47.05
2018-10-19T11:09:43.603Z,44.83
2018-10-19T11:12:09.009Z,43.86
2018-10-19T11:14:34.461Z,41.90
2018-10-19T11:16:59.866Z,40.15
2018-10-19T11:19:25.309Z,37.66
2018-10-19T11:21:50.784Z,34.24
2018-10-19T11:24:16.416Z,36.43
2018-10-19T11:26:41.846Z,36.63
2018-10-19T11:29:07.336Z,31.70
2018-10-19T11:31:44.403Z,30.95
2018-10-19T11:34:04.059Z,29.41
2018-10-19T11:36:29.496Z,27.95
2018-10-19T11:39:08.812Z,28.13
2018-10-19T11:41:41.484Z,32.90
2018-10-19T11:43:57.992Z,28.25
2018-10-19T11:46:23.438Z,29.89
2018-10-19T11:49:03.774Z,27.05
2018-10-19T11:51:38.855Z,24.91
2018-10-19T11:54:04.306Z,24.12
2018-10-19T11:56:29.800Z,24.71
2018-10-19T11:58:55.297Z,23.58
2018-10-19T12:03:59.686Z,24.22
2018-10-19T12:06:25.093Z,22.89
2018-10-19T12:08:50.822Z,22.54
2018-10-19T12:11:16.288Z,26.41
2018-10-19T12:13:42.186Z,26.11
2018-10-19T12:16:08.433Z,23.95
2018-10-19T12:18:34.183Z,25.29
2018-10-19T12:20:59.742Z,25.21
2018-10-19T12:23:25.185Z,24.30
2018-10-19T12:26:02.383Z,23.04
2018-10-19T12:28:21.615Z,24.17
2018-10-19T12:30:47.064Z,22.19
2018-10-19T12:33:24.154Z,21.17
2018-10-19T12:35:44.392Z,21.02
2018-10-19T12:38:09.810Z,21.29
2018-10-19T12:40:46.771Z,20.94
2018-10-19T12:43:07.262Z,21.47
2018-10-19T12:46:10.757Z,20.71
2018-10-19T12:48:36.171Z,21.22
2018-10-19T12:51:01.674Z,22.20
2018-10-19T12:53:27.083Z,23.69
2018-10-19T12:58:32.584Z,20.42
2018-10-19T13:00:58.068Z,20.66
2018-10-19T13:03:23.591Z,21.57
2018-10-19T13:08:26.517Z,22.11
2018-10-19T13:10:51.942Z,23.05
2018-10-19T13:13:17.403Z,23.41
2018-10-19T13:18:37.950Z,20.97
2018-10-19T13:21:03.709Z,20.12
2018-10-19T13:26:06.693Z,20.90
2018-10-19T13:28:32.293Z,19.88
2018-10-19T13:30:57.873Z,19.80
2018-10-19T13:33:23.321Z,22.98
2018-10-19T13:38:26.229Z,18.22
2018-10-19T13:40:52.482Z,19.81
2018-10-19T13:43:17.984Z,19.82
2018-10-19T13:45:43.418Z,18.84
2018-10-19T13:48:08.870Z,19.25
2018-10-19T13:50:34.312Z,19.32
2018-10-19T13:52:59.860Z,19.23
2018-10-19T13:55:25.778Z,18.43
2018-10-19T13:57:51.245Z,18.42
2018-10-19T14:00:29.078Z,18.01
2018-10-19T14:02:54.603Z,18.22
2018-10-19T14:07:57.247Z,19.83
2018-10-19T14:12:58.947Z,18.75
2018-10-19T14:15:24.351Z,18.64
2018-10-19T14:17:49.789Z,18.63
2018-10-19T14:20:29.293Z,19.25
2018-10-19T14:22:46.460Z,20.05
2018-10-19T14:25:12.964Z,20.60
2018-10-19T14:30:20.423Z,22.19
2018-10-19T14:35:23.151Z,19.81
2018-10-19T14:37:48.606Z,20.38
2018-10-19T14:40:32.785Z,20.66
2018-10-19T14:42:58.208Z,21.73
2018-10-19T14:45:23.628Z,20.89
2018-10-19T14:47:49.999Z,20.68
2018-10-19T14:50:16.734Z,21.09
2018-10-19T14:52:42.173Z,23.84
2018-10-19T14:55:09.402Z,22.31
2018-10-19T14:57:34.923Z,22.63
2018-10-19T15:00:00.345Z,23.10
2018-10-19T15:02:44.763Z,27.33
2018-10-19T15:05:12.240Z,27.58
2018-10-19T15:07:38.045Z,25.75
2018-10-19T15:10:03.540Z,25.53
2018-10-19T15:12:28.890Z,28.58
2018-10-19T15:14:54.367Z,29.11
2018-10-19T15:17:19.816Z,30.84
2018-10-19T15:19:45.264Z,31.45
2018-10-19T15:22:22.445Z,32.11
2018-10-19T15:24:41.873Z,32.56
2018-10-19T15:27:07.419Z,33.84
2018-10-19T15:29:32.812Z,33.22
2018-10-19T15:31:58.164Z,33.50
2018-10-19T15:34:23.593Z,34.33
2018-10-19T15:36:49.055Z,34.50
2018-10-19T15:39:14.505Z,34.76
2018-10-19T15:44:35.650Z,35.95
2018-10-19T15:47:19.827Z,36.91
2018-10-19T15:49:45.281Z,37.99
2018-10-19T15:52:10.665Z,36.99
2018-10-19T15:54:36.127Z,37.17
2018-10-19T15:57:01.659Z,37.96
2018-10-19T15:59:38.815Z,37.72
2018-10-19T16:01:58.623Z,38.80
2018-10-19T16:04:24.059Z,39.11
2018-10-19T16:06:49.498Z,38.67
2018-10-19T16:09:16.044Z,38.87
2018-10-19T16:11:41.432Z,39.24
2018-10-19T16:14:18.757Z,39.81
2018-10-19T16:16:38.852Z,40.81
2018-10-19T16:19:04.289Z,41.42
2018-10-19T16:21:29.720Z,41.52
2018-10-19T16:23:55.182Z,40.88
2018-10-19T16:26:32.078Z,40.83
2018-10-19T16:28:52.827Z,41.74
2018-10-19T16:31:18.263Z,41.51
2018-10-19T16:36:31.968Z,41.28
2018-10-19T16:38:51.609Z,41.57
2018-10-19T16:41:17.027Z,41.53
2018-10-19T16:43:56.419Z,41.91
2018-10-19T16:46:13.980Z,41.71
2018-10-19T16:48:50.903Z,41.87
2018-10-19T16:51:16.361Z,42.25
2018-10-19T16:53:41.976Z,42.18
2018-10-19T16:56:20.243Z,42.26
2018-10-19T16:58:50.032Z,42.35
2018-10-19T17:03:47.709Z,42.65
2018-10-19T17:06:13.217Z,42.81
2018-10-19T17:08:38.573Z,42.75
2018-10-19T17:11:03.988Z,42.84
2018-10-19T17:13:29.410Z,42.99
2018-10-19T17:21:07.121Z,44.70
2018-10-19T17:23:32.888Z,44.57
2018-10-19T17:25:58.340Z,44.54
2018-10-19T17:28:42.766Z,44.26
2018-10-19T17:33:58.520Z,44.93
2018-10-19T17:38:50.455Z,45.48
2018-10-19T17:41:15.933Z,45.23
2018-10-19T17:43:41.319Z,45.31
2018-10-19T17:46:06.806Z,45.22
2018-10-19T17:48:32.216Z,46.32
2018-10-19T17:53:48.977Z,45.66
2018-10-19T17:56:08.713Z,46.51
2018-10-19T17:58:34.199Z,46.27
2018-10-19T18:00:59.639Z,46.02
2018-10-19T18:05:56.186Z,46.47
2018-10-19T18:08:35.254Z,46.79
2018-10-19T18:11:07.258Z,47.00
2018-10-19T18:13:35.601Z,46.43
2018-10-19T18:15:55.733Z,47.02
2018-10-19T18:18:21.117Z,47.73
2018-10-19T18:20:46.552Z,47.90
2018-10-19T18:23:12.172Z,47.46
2018-10-19T18:25:37.496Z,47.76
2018-10-19T18:28:02.983Z,47.63
2018-10-19T18:30:28.441Z,48.57
2018-10-19T18:33:12.891Z,48.16
2018-10-19T18:35:38.331Z,48.15
2018-10-19T18:38:03.823Z,48.32
2018-10-19T18:40:29.340Z,48.55
2018-10-19T18:45:31.672Z,48.91
2018-10-19T18:47:57.174Z,49.84
2018-10-19T18:50:22.796Z,50.38
2018-10-19T18:52:48.350Z,49.63
2018-10-19T18:55:13.902Z,49.46
2018-10-19T18:57:39.285Z,50.07
2018-10-19T19:00:04.757Z,49.48
2018-10-19T19:02:30.231Z,49.99
2018-10-19T19:04:55.876Z,50.71
2018-10-19T19:07:35.076Z,51.11
2018-10-19T19:10:11.800Z,51.44
2018-10-19T19:12:37.308Z,51.13
2018-10-19T19:15:02.754Z,51.86
2018-10-19T19:17:28.282Z,51.72
2018-10-19T19:20:12.508Z,51.39
2018-10-19T19:22:38.054Z,51.44
2018-10-19T19:25:22.207Z,51.49
2018-10-19T19:27:47.733Z,51.98
2018-10-19T19:30:13.254Z,51.94
2018-10-19T19:32:39.306Z,51.78
2018-10-19T19:35:04.782Z,51.93
2018-10-19T19:37:30.144Z,51.90
2018-10-19T19:39:55.735Z,52.62
2018-10-19T19:42:39.848Z,51.40
2018-10-19T19:45:05.383Z,51.05
2018-10-19T19:50:07.505Z,51.08
2018-10-19T19:52:33.006Z,51.25
2018-10-19T19:54:58.528Z,52.39
2018-10-19T19:57:23.959Z,52.44
2018-10-19T19:59:49.431Z,52.50
2018-10-19T20:02:26.837Z,52.33
2018-10-19T20:04:52.302Z,53.08
2018-10-19T20:07:17.731Z,52.51
2018-10-19T20:09:43.241Z,53.02
2018-10-19T20:14:48.360Z,52.98
2018-10-19T20:17:13.877Z,52.64
2018-10-19T20:19:39.273Z,52.51
2018-10-19T20:22:04.713Z,52.92
2018-10-19T20:24:30.148Z,52.79
2018-10-19T20:26:55.684Z,52.99
2018-10-19T20:29:21.154Z,53.27
2018-10-19T20:31:46.611Z,53.13
2018-10-19T20:34:12.100Z,53.64
2018-10-19T20:36:37.555Z,53.89
2018-10-19T20:39:03.128Z,53.43
2018-10-19T20:41:28.655Z,53.22
2018-10-19T20:43:54.124Z,53.93
2018-10-19T20:48:56.912Z,53.68
2018-10-19T20:53:58.468Z,54.19
2018-10-19T20:56:23.943Z,54.39
2018-10-19T21:01:26.217Z,54.79
2018-10-19T21:03:52.012Z,56.04
2018-10-19T21:08:57.960Z,55.29
2018-10-19T21:11:35.141Z,54.86
2018-10-19T21:13:54.446Z,54.00
2018-10-19T21:21:38.414Z,54.32
2018-10-19T21:24:03.927Z,54.33
2018-10-19T21:26:29.410Z,54.29
2018-10-19T21:28:54.861Z,55.12
2018-10-19T21:31:20.448Z,55.30
2018-10-19T21:33:45.920Z,55.87
2018-10-19T21:36:11.413Z,55.67
2018-10-19T21:38:55.813Z,55.41
2018-10-19T21:41:23.467Z,56.09
2018-10-19T21:43:48.900Z,56.15
2018-10-19T21:46:14.363Z,57.04
2018-10-19T21:48:39.789Z,56.89
2018-10-19T21:51:05.241Z,56.21
2018-10-19T21:53:30.667Z,56.46
2018-10-19T21:55:56.173Z,56.16
2018-10-19T21:58:21.617Z,55.58
2018-10-19T22:00:47.069Z,57.14
2018-10-19T22:03:12.520Z,57.42
2018-10-19T22:05:37.954Z,56.84
2018-10-19T22:08:03.385Z,56.87
2018-10-19T22:10:43.183Z,56.83
2018-10-19T22:13:00.646Z,57.18
2018-10-19T22:15:26.089Z,57.31
2018-10-19T22:17:51.475Z,56.89
2018-10-19T22:20:16.893Z,56.78
2018-10-19T22:22:53.857Z,57.79
2018-10-19T22:25:24.911Z,57.59
2018-10-19T22:32:59.289Z,57.94
2018-10-19T22:35:24.802Z,57.42
2018-10-19T22:37:50.149Z,57.69
2018-10-19T22:40:15.549Z,58.27
2018-10-19T22:42:40.991Z,58.51
2018-10-19T22:45:06.621Z,57.58
2018-10-19T22:47:32.238Z,57.27
2018-10-19T22:52:34.590Z,57.26
2018-10-19T22:55:00.091Z,57.21
2018-10-19T22:57:25.491Z,58.08
2018-10-19T22:59:51.027Z,57.95
2018-10-19T23:02:16.518Z,58.56
2018-10-19T23:04:41.935Z,58.87
2018-10-19T23:09:44.915Z,58.09
2018-10-19T23:14:47.171Z,58.01
2018-10-19T23:17:12.568Z,58.06
2018-10-19T23:19:38.094Z,58.03
2018-10-19T23:22:03.907Z,57.98
2018-10-19T23:24:29.403Z,57.96
2018-10-19T23:26:54.832Z,58.18
2018-10-19T23:29:20.275Z,57.94
2018-10-19T23:31:47.727Z,58.87
2018-10-19T23:34:11.097Z,57.95
2018-10-19T23:39:10.457Z,58.62
2018-10-19T23:44:13.415Z,59.46
2018-10-19T23:46:50.713Z,59.27
2018-10-19T23:54:23.941Z,59.88
2018-10-19T23:56:49.398Z,60.30
2018-10-19T23:59:14.873Z,59.60
